createdAt,value
2018-07-11T00:01:31.860Z,19.20
2018-07-11T00:03:58.651Z,19.20
2018-07-11T00:06:26.350Z,19.10
2018-07-11T00:08:53.133Z,19.10
2018-07-11T00:11:20.537Z,19.10
2018-07-11T00:13:47.794Z,18.90
2018-07-11T00:16:15.445Z,19.10
2018-07-11T00:18:42.435Z,19.10
2018-07-11T00:21:09.150Z,19.00
2018-07-11T00:23:36.540Z,19.00
2018-07-11T00:26:03.568Z,19.00
2018-07-11T00:28:30.332Z,19.00
2018-07-11T00:30:57.462Z,19.00
2018-07-11T00:33:24.426Z,19.00
2018-07-11T00:35:52.118Z,19.00
2018-07-11T00:38:19.052Z,19.00
2018-07-11T00:40:45.732Z,19.00
2018-07-11T00:43:12.634Z,19.00
2018-07-11T00:45:40.004Z,18.90
2018-07-11T00:50:34.998Z,18.90
2018-07-11T00:53:01.848Z,18.90
2018-07-11T00:55:29.456Z,18.90
2018-07-11T00:57:56.297Z,18.90
2018-07-11T01:00:23.706Z,18.90
2018-07-11T01:02:50.756Z,18.50
2018-07-11T01:05:17.486Z,18.90
2018-07-11T01:07:44.216Z,18.90
2018-07-11T01:12:38.960Z,18.80
2018-07-11T01:15:05.748Z,18.80
2018-07-11T01:17:38.012Z,18.70
2018-07-11T01:20:04.814Z,18.80
2018-07-11T01:24:59.742Z,18.80
2018-07-11T01:27:26.404Z,18.70
2018-07-11T01:29:53.117Z,18.80
2018-07-11T01:32:19.963Z,18.70
2018-07-11T01:34:46.658Z,18.70
2018-07-11T01:37:14.368Z,18.70
2018-07-11T01:39:41.083Z,18.70
2018-07-11T01:42:08.560Z,18.70
2018-07-11T01:44:35.367Z,18.70
2018-07-11T01:47:02.083Z,18.70
2018-07-11T01:49:29.011Z,18.70
2018-07-11T01:51:56.259Z,18.70
2018-07-11T01:54:23.095Z,18.60
2018-07-11T01:56:49.939Z,18.60
2018-07-11T01:59:16.638Z,18.60
2018-07-11T02:01:43.320Z,18.60
2018-07-11T02:04:10.015Z,18.60
2018-07-11T02:06:37.492Z,18.60
2018-07-11T02:09:05.080Z,18.60
2018-07-11T02:11:32.352Z,18.50
2018-07-11T02:13:59.024Z,18.50
2018-07-11T02:16:25.928Z,18.50
2018-07-11T02:18:52.741Z,18.60
2018-07-11T02:21:19.623Z,18.50
2018-07-11T02:23:46.458Z,18.50
2018-07-11T02:26:13.248Z,18.50
2018-07-11T02:28:40.058Z,18.50
2018-07-11T02:31:06.760Z,18.50
2018-07-11T02:33:33.625Z,18.50
2018-07-11T02:36:00.441Z,18.50
2018-07-11T02:38:27.964Z,18.00
2018-07-11T02:40:54.687Z,18.50
2018-07-11T02:43:21.504Z,18.50
2018-07-11T02:48:15.654Z,18.40
2018-07-11T02:50:42.454Z,18.40
2018-07-11T02:53:09.312Z,18.40
2018-07-11T02:55:36.122Z,18.40
2018-07-11T02:58:02.860Z,18.40
2018-07-11T03:00:30.223Z,18.40
2018-07-11T03:02:56.952Z,18.40
2018-07-11T03:05:23.806Z,18.40
2018-07-11T03:07:50.479Z,18.40
2018-07-11T03:10:17.433Z,18.40
2018-07-11T03:12:44.339Z,18.30
2018-07-11T03:15:11.128Z,18.30
2018-07-11T03:17:38.447Z,18.30
2018-07-11T03:20:07.604Z,18.30
2018-07-11T03:22:45.116Z,18.30
2018-07-11T03:25:21.081Z,18.30
2018-07-11T03:27:51.309Z,18.30
2018-07-11T03:30:22.307Z,18.30
2018-07-11T03:32:49.135Z,18.30
2018-07-11T03:35:15.945Z,18.30
2018-07-11T03:37:42.673Z,18.30
2018-07-11T03:40:09.570Z,18.30
2018-07-11T03:42:36.462Z,18.30
2018-07-11T03:45:04.383Z,18.30
2018-07-11T03:47:31.097Z,18.30
2018-07-11T03:49:57.887Z,18.30
2018-07-11T03:52:24.706Z,18.30
2018-07-11T03:54:51.591Z,18.20
2018-07-11T03:57:18.486Z,18.20
2018-07-11T03:59:45.210Z,18.20
2018-07-11T04:02:11.968Z,18.20
2018-07-11T04:04:38.694Z,18.20
2018-07-11T04:07:05.388Z,18.20
2018-07-11T04:09:32.108Z,18.20
2018-07-11T04:11:58.822Z,18.20
2018-07-11T04:14:25.657Z,18.00
2018-07-11T04:16:52.424Z,18.20
2018-07-11T04:19:19.208Z,18.20
2018-07-11T04:21:46.011Z,18.20
2018-07-11T04:24:12.764Z,18.10
2018-07-11T04:26:39.503Z,18.20
2018-07-11T04:29:06.304Z,18.20
2018-07-11T04:31:32.982Z,18.20
2018-07-11T04:34:00.376Z,18.20
2018-07-11T04:36:27.056Z,18.20
2018-07-11T04:38:54.546Z,18.20
2018-07-11T04:41:21.260Z,18.20
2018-07-11T04:43:47.973Z,18.20
2018-07-11T04:46:15.289Z,18.20
2018-07-11T04:48:42.210Z,18.20
2018-07-11T04:51:09.032Z,18.20
2018-07-11T04:53:35.826Z,18.20
2018-07-11T04:56:03.480Z,18.20
2018-07-11T04:58:30.899Z,18.20
2018-07-11T05:00:58.363Z,18.20
2018-07-11T05:03:25.858Z,18.20
2018-07-11T05:05:52.586Z,18.20
2018-07-11T05:08:20.224Z,18.20
2018-07-11T05:10:47.155Z,18.20
2018-07-11T05:13:14.050Z,17.80
2018-07-11T05:15:41.006Z,18.20
2018-07-11T05:18:07.826Z,18.30
2018-07-11T05:20:34.770Z,18.30
2018-07-11T05:23:02.609Z,18.30
2018-07-11T05:25:29.405Z,18.30
2018-07-11T05:27:56.266Z,18.30
2018-07-11T05:30:23.164Z,18.30
2018-07-11T05:32:50.169Z,18.30
2018-07-11T05:35:17.610Z,18.30
2018-07-11T05:37:44.316Z,18.40
2018-07-11T05:40:11.034Z,18.40
2018-07-11T05:42:41.074Z,18.40
2018-07-11T05:45:08.703Z,18.40
2018-07-11T05:47:35.454Z,18.40
2018-07-11T05:50:02.308Z,18.50
2018-07-11T05:52:29.012Z,18.50
2018-07-11T05:54:55.929Z,18.50
2018-07-11T05:57:22.844Z,18.50
2018-07-11T05:59:49.689Z,18.60
2018-07-11T06:02:16.518Z,18.60
2018-07-11T06:04:43.353Z,18.60
2018-07-11T06:07:10.199Z,18.70
2018-07-11T06:09:36.937Z,18.70
2018-07-11T06:12:03.627Z,18.70
2018-07-11T06:14:30.360Z,18.80
2018-07-11T06:16:57.173Z,18.40
2018-07-11T06:19:23.977Z,18.80
2018-07-11T06:21:51.354Z,18.90
2018-07-11T06:24:18.558Z,18.90
2018-07-11T06:29:12.818Z,19.00
2018-07-11T06:31:39.631Z,19.00
2018-07-11T06:34:06.452Z,19.00
2018-07-11T06:36:33.311Z,19.00
2018-07-11T06:39:00.085Z,19.10
2018-07-11T06:41:32.822Z,19.10
2018-07-11T06:44:07.532Z,19.10
2018-07-11T06:46:45.261Z,19.20
2018-07-11T06:51:47.026Z,19.20
2018-07-11T06:54:13.752Z,19.30
2018-07-11T06:56:40.581Z,19.30
2018-07-11T06:59:10.721Z,19.30
2018-07-11T07:01:43.065Z,19.30
2018-07-11T07:04:13.542Z,19.40
2018-07-11T07:06:41.360Z,19.40
2018-07-11T07:09:16.090Z,19.40
2018-07-11T07:11:51.453Z,19.50
2018-07-11T07:14:26.261Z,19.50
2018-07-11T07:17:00.795Z,19.60
2018-07-11T07:19:34.829Z,19.60
2018-07-11T07:22:09.346Z,19.70
2018-07-11T07:24:43.266Z,19.80
2018-07-11T07:27:17.767Z,19.80
2018-07-11T07:29:52.644Z,19.90
2018-07-11T07:32:28.713Z,20.00
2018-07-11T07:35:14.044Z,20.10
2018-07-11T07:37:47.680Z,20.10
2018-07-11T07:40:21.547Z,20.20
2018-07-11T07:42:55.386Z,20.30
2018-07-11T07:45:30.096Z,20.40
2018-07-11T07:48:05.160Z,20.50
2018-07-11T07:50:39.198Z,20.60
2018-07-11T07:53:13.927Z,20.60
2018-07-11T07:55:47.323Z,20.70
2018-07-11T07:58:21.258Z,20.70
2018-07-11T08:00:56.302Z,20.80
2018-07-11T08:03:33.759Z,20.90
2018-07-11T08:06:08.667Z,21.00
2018-07-11T08:08:42.415Z,21.10
2018-07-11T08:11:22.361Z,21.20
2018-07-11T08:13:55.836Z,21.20
2018-07-11T08:16:25.364Z,21.30
2018-07-11T08:18:58.898Z,21.40
2018-07-11T08:21:30.505Z,21.40
2018-07-11T08:24:05.537Z,21.50
2018-07-11T08:26:42.747Z,21.50
2018-07-11T08:29:17.361Z,21.50
2018-07-11T08:31:51.810Z,21.60
2018-07-11T08:34:24.389Z,21.60
2018-07-11T08:36:59.170Z,21.70
2018-07-11T08:39:33.059Z,21.70
2018-07-11T08:42:07.481Z,21.80
2018-07-11T08:44:41.823Z,21.80
2018-07-11T08:47:15.209Z,21.80
2018-07-11T08:49:48.794Z,21.80
2018-07-11T08:52:21.453Z,21.80
2018-07-11T08:54:54.286Z,21.90
2018-07-11T08:57:29.664Z,21.90
2018-07-11T09:00:03.704Z,21.90
2018-07-11T09:02:37.321Z,22.00
2018-07-11T09:05:11.241Z,22.00
2018-07-11T09:07:45.245Z,22.10
2018-07-11T09:10:19.773Z,22.10
2018-07-11T09:12:47.982Z,22.20
2018-07-11T09:15:14.802Z,22.20
2018-07-11T09:17:41.711Z,22.30
2018-07-11T09:20:09.741Z,22.30
2018-07-11T09:22:36.529Z,22.40
2018-07-11T09:25:03.217Z,22.40
2018-07-11T09:27:29.991Z,22.50
2018-07-11T09:32:24.062Z,22.60
2018-07-11T09:34:50.867Z,22.60
2018-07-11T09:37:17.772Z,22.70
2018-07-11T09:39:44.675Z,22.70
2018-07-11T09:42:11.506Z,22.80
2018-07-11T09:44:38.359Z,22.80
2018-07-11T09:47:10.600Z,22.90
2018-07-11T09:49:37.515Z,22.90
2018-07-11T09:52:04.404Z,22.90
2018-07-11T09:54:31.249Z,23.00
2018-07-11T09:56:58.067Z,23.10
2018-07-11T09:59:24.924Z,23.10
2018-07-11T10:01:51.750Z,23.10
2018-07-11T10:04:18.438Z,23.20
2018-07-11T10:06:45.247Z,23.20
2018-07-11T10:09:12.025Z,23.30
2018-07-11T10:11:38.832Z,23.30
2018-07-11T10:14:05.777Z,23.30
2018-07-11T10:16:32.801Z,23.30
2018-07-11T10:19:01.824Z,23.40
2018-07-11T10:23:56.886Z,23.50
2018-07-11T10:26:24.263Z,23.50
2018-07-11T10:28:51.250Z,23.50
2018-07-11T10:31:18.052Z,23.60
2018-07-11T10:33:44.910Z,23.60
2018-07-11T10:36:11.790Z,23.70
2018-07-11T10:38:38.508Z,23.70
2018-07-11T10:41:05.252Z,23.70
2018-07-11T10:43:32.116Z,23.70
2018-07-11T10:45:58.864Z,23.80
2018-07-11T10:48:25.984Z,23.90
2018-07-11T10:50:52.687Z,23.90
2018-07-11T10:53:19.500Z,23.90
2018-07-11T10:55:46.254Z,23.90
2018-07-11T10:58:13.028Z,24.00
2018-07-11T11:00:39.876Z,24.00
2018-07-11T11:03:06.828Z,24.10
2018-07-11T11:05:33.632Z,24.10
2018-07-11T11:08:00.451Z,24.10
2018-07-11T11:10:27.360Z,24.10
2018-07-11T11:12:54.700Z,24.20
2018-07-11T11:15:21.518Z,24.20
2018-07-11T11:20:15.573Z,24.20
2018-07-11T11:22:42.290Z,24.20
2018-07-11T11:25:09.067Z,24.20
2018-07-11T11:27:35.922Z,24.20
2018-07-11T11:30:03.130Z,24.30
2018-07-11T11:32:30.200Z,24.30
2018-07-11T11:34:57.367Z,24.30
2018-07-11T11:37:24.138Z,24.30
2018-07-11T11:39:51.022Z,24.30
2018-07-11T11:42:17.839Z,24.40
2018-07-11T11:44:44.517Z,24.40
2018-07-11T11:47:11.284Z,24.40
2018-07-11T11:49:38.071Z,24.50
2018-07-11T11:52:04.875Z,24.50
2018-07-11T11:54:31.707Z,24.60
2018-07-11T11:56:58.613Z,24.60
2018-07-11T11:59:25.307Z,24.70
2018-07-11T12:01:52.076Z,24.70
2018-07-11T12:04:18.803Z,24.80
2018-07-11T12:06:45.682Z,24.80
2018-07-11T12:09:12.407Z,24.80
2018-07-11T12:11:39.323Z,24.90
2018-07-11T12:14:06.095Z,25.00
2018-07-11T12:16:32.936Z,25.00
2018-07-11T12:18:59.812Z,25.00
2018-07-11T12:21:27.073Z,25.10
2018-07-11T12:23:53.840Z,25.10
2018-07-11T12:26:20.615Z,25.10
2018-07-11T12:28:47.322Z,25.20
2018-07-11T12:31:14.102Z,25.20
2018-07-11T12:33:40.818Z,25.20
2018-07-11T12:36:07.528Z,25.30
2018-07-11T12:38:34.202Z,25.30
2018-07-11T12:41:00.944Z,25.30
2018-07-11T12:43:27.958Z,25.40
2018-07-11T12:45:55.200Z,25.40
2018-07-11T12:48:27.440Z,25.50
2018-07-11T12:50:54.079Z,25.40
2018-07-11T12:53:20.902Z,25.50
2018-07-11T12:55:47.918Z,25.50
2018-07-11T12:58:14.621Z,25.50
2018-07-11T13:03:08.607Z,25.60
2018-07-11T13:05:35.313Z,25.50
2018-07-11T13:08:02.041Z,25.60
2018-07-11T13:12:55.947Z,25.60
2018-07-11T13:15:22.687Z,25.60
2018-07-11T13:17:49.480Z,25.60
2018-07-11T13:20:16.205Z,25.60
2018-07-11T13:22:42.890Z,25.60
2018-07-11T13:25:09.561Z,25.70
2018-07-11T13:27:36.251Z,25.70
2018-07-11T13:30:02.961Z,25.60
2018-07-11T13:32:30.171Z,25.60
2018-07-11T13:34:56.923Z,25.70
2018-07-11T13:37:23.717Z,25.60
2018-07-11T13:39:50.503Z,25.60
2018-07-11T13:42:17.367Z,25.60
2018-07-11T13:44:44.177Z,25.60
2018-07-11T13:47:16.557Z,25.70
2018-07-11T13:49:43.447Z,25.60
2018-07-11T13:54:37.486Z,25.60
2018-07-11T13:57:04.269Z,25.60
2018-07-11T13:59:31.050Z,25.60
2018-07-11T14:01:57.831Z,25.60
2018-07-11T14:04:24.681Z,25.60
2018-07-11T14:06:51.456Z,25.60
2018-07-11T14:11:45.611Z,25.60
2018-07-11T14:14:12.473Z,25.60
2018-07-11T14:16:39.296Z,25.60
2018-07-11T14:19:06.147Z,25.60
2018-07-11T14:21:33.035Z,25.60
2018-07-11T14:23:59.724Z,25.60
2018-07-11T14:26:26.617Z,25.60
2018-07-11T14:28:53.698Z,25.60
2018-07-11T14:31:20.474Z,25.60
2018-07-11T14:33:47.397Z,25.60
2018-07-11T14:36:14.095Z,25.60
2018-07-11T14:38:40.970Z,25.60
2018-07-11T14:41:07.934Z,25.50
2018-07-11T14:43:34.790Z,25.60
2018-07-11T14:46:01.570Z,25.60
2018-07-11T14:48:29.595Z,25.60
2018-07-11T14:50:56.552Z,25.60
2018-07-11T14:53:23.363Z,25.50
2018-07-11T14:55:50.151Z,25.50
2018-07-11T14:58:16.892Z,25.60
2018-07-11T15:00:43.774Z,25.60
2018-07-11T15:03:10.670Z,25.60
2018-07-11T15:05:37.809Z,25.60
2018-07-11T15:08:04.676Z,25.60
2018-07-11T15:10:31.448Z,25.60
2018-07-11T15:12:58.266Z,25.60
2018-07-11T15:15:25.160Z,25.60
2018-07-11T15:20:19.241Z,25.60
2018-07-11T15:22:50.150Z,25.60
2018-07-11T15:25:16.932Z,25.60
2018-07-11T15:27:43.716Z,25.60
2018-07-11T15:30:10.557Z,25.60
2018-07-11T15:32:37.370Z,25.60
2018-07-11T15:35:04.170Z,25.60
2018-07-11T15:37:30.978Z,25.70
2018-07-11T15:39:57.996Z,25.60
2018-07-11T15:42:24.785Z,25.60
2018-07-11T15:44:52.330Z,25.60
2018-07-11T15:49:48.240Z,25.60
2018-07-11T15:52:15.055Z,25.70
2018-07-11T15:54:41.781Z,25.70
2018-07-11T15:57:08.580Z,25.70
2018-07-11T15:59:35.419Z,25.70
2018-07-11T16:02:02.217Z,25.70
2018-07-11T16:04:29.506Z,25.70
2018-07-11T16:06:56.265Z,25.70
2018-07-11T16:09:23.024Z,25.70
2018-07-11T16:11:49.813Z,25.70
2018-07-11T16:14:16.545Z,25.70
2018-07-11T16:16:43.270Z,25.60
2018-07-11T16:19:10.020Z,25.50
2018-07-11T16:21:36.879Z,25.50
2018-07-11T16:24:03.887Z,25.50
2018-07-11T16:26:30.646Z,25.40
2018-07-11T16:28:57.439Z,25.40
2018-07-11T16:31:24.282Z,25.40
2018-07-11T16:33:51.094Z,25.30
2018-07-11T16:36:17.933Z,25.20
2018-07-11T16:38:44.694Z,25.20
2018-07-11T16:41:12.258Z,25.20
2018-07-11T16:43:39.177Z,25.20
2018-07-11T16:46:05.868Z,25.20
2018-07-11T16:48:32.649Z,25.10
2018-07-11T16:50:59.604Z,25.10
2018-07-11T16:53:26.362Z,25.00
2018-07-11T16:55:53.112Z,25.00
2018-07-11T16:58:19.949Z,25.00
2018-07-11T17:00:46.812Z,25.00
2018-07-11T17:03:14.700Z,24.90
2018-07-11T17:05:41.537Z,24.90
2018-07-11T17:08:08.286Z,24.90
2018-07-11T17:10:35.049Z,24.90
2018-07-11T17:13:01.815Z,24.90
2018-07-11T17:15:28.739Z,24.90
2018-07-11T17:17:55.563Z,24.90
2018-07-11T17:20:22.281Z,24.90
2018-07-11T17:22:49.119Z,24.90
2018-07-11T17:25:16.567Z,24.80
2018-07-11T17:27:43.500Z,24.80
2018-07-11T17:30:10.203Z,24.80
2018-07-11T17:32:36.989Z,24.70
2018-07-11T17:35:03.748Z,24.60
2018-07-11T17:37:30.571Z,24.60
2018-07-11T17:39:57.442Z,24.50
2018-07-11T17:42:27.427Z,24.50
2018-07-11T17:44:54.289Z,24.40
2018-07-11T17:47:21.065Z,24.40
2018-07-11T17:49:47.919Z,24.40
2018-07-11T17:52:14.997Z,24.30
2018-07-11T17:54:42.406Z,24.30
2018-07-11T17:57:09.243Z,24.20
2018-07-11T17:59:37.056Z,24.10
2018-07-11T18:02:03.894Z,24.10
2018-07-11T18:04:30.716Z,24.00
2018-07-11T18:06:57.554Z,24.00
2018-07-11T18:09:24.608Z,23.90
2018-07-11T18:11:59.022Z,23.90
2018-07-11T18:14:26.546Z,23.80
2018-07-11T18:16:53.298Z,23.80
2018-07-11T18:19:21.756Z,23.80
2018-07-11T18:21:48.725Z,23.70
2018-07-11T18:24:15.598Z,23.70
2018-07-11T18:26:42.539Z,23.70
2018-07-11T18:29:09.488Z,23.70
2018-07-11T18:31:36.526Z,23.70
2018-07-11T18:34:03.354Z,23.60
2018-07-11T18:36:30.315Z,23.60
2018-07-11T18:38:57.068Z,23.60
2018-07-11T18:41:23.782Z,23.60
2018-07-11T18:46:20.776Z,23.60
2018-07-11T18:48:47.750Z,23.60
2018-07-11T18:51:14.574Z,23.60
2018-07-11T18:53:42.183Z,23.60
2018-07-11T18:56:11.148Z,23.60
2018-07-11T19:01:06.044Z,23.50
2018-07-11T19:03:37.679Z,23.50
2018-07-11T19:06:05.384Z,23.50
2018-07-11T19:08:32.029Z,23.50
2018-07-11T19:10:58.847Z,23.50
2018-07-11T19:13:25.727Z,23.50
2018-07-11T19:15:52.534Z,23.40
2018-07-11T19:18:19.550Z,23.40
2018-07-11T19:20:46.305Z,23.40
2018-07-11T19:23:13.165Z,23.40
2018-07-11T19:25:39.866Z,23.30
2018-07-11T19:28:06.665Z,23.30
2018-07-11T19:30:33.413Z,23.30
2018-07-11T19:33:00.958Z,23.30
2018-07-11T19:35:27.711Z,23.30
2018-07-11T19:37:55.201Z,23.20
2018-07-11T19:40:21.904Z,23.20
2018-07-11T19:42:48.683Z,23.20
2018-07-11T19:45:15.619Z,23.20
2018-07-11T19:47:42.442Z,23.20
2018-07-11T19:50:09.273Z,23.10
2018-07-11T19:52:36.141Z,23.10
2018-07-11T19:55:02.977Z,23.10
2018-07-11T19:57:29.734Z,23.10
2018-07-11T19:59:56.524Z,23.00
2018-07-11T20:02:23.276Z,23.00
2018-07-11T20:04:50.026Z,23.00
2018-07-11T20:07:16.838Z,22.90
2018-07-11T20:09:43.686Z,22.90
2018-07-11T20:12:10.622Z,22.90
2018-07-11T20:14:37.463Z,22.90
2018-07-11T20:17:04.188Z,22.90
2018-07-11T20:19:30.997Z,22.80
2018-07-11T20:21:57.777Z,22.80
2018-07-11T20:24:24.550Z,22.80
2018-07-11T20:26:56.347Z,22.70
2018-07-11T20:29:23.125Z,22.70
2018-07-11T20:31:49.805Z,22.70
2018-07-11T20:34:16.502Z,22.70
2018-07-11T20:36:43.326Z,22.70
2018-07-11T20:39:10.122Z,22.60
2018-07-11T20:41:36.850Z,22.60
2018-07-11T20:44:03.594Z,22.60
2018-07-11T20:46:30.381Z,22.50
2018-07-11T20:48:57.048Z,22.50
2018-07-11T20:51:23.773Z,22.50
2018-07-11T20:53:50.513Z,22.40
2018-07-11T20:56:17.303Z,22.40
2018-07-11T20:58:44.052Z,22.40
2018-07-11T21:01:10.780Z,22.40
2018-07-11T21:03:37.554Z,22.40
2018-07-11T21:06:04.273Z,22.30
2018-07-11T21:08:30.992Z,22.00
2018-07-11T21:10:57.731Z,22.20
2018-07-11T21:13:24.631Z,22.20
2018-07-11T21:15:51.359Z,22.20
2018-07-11T21:18:18.277Z,22.20
2018-07-11T21:20:44.979Z,22.10
2018-07-11T21:23:11.742Z,22.10
2018-07-11T21:25:38.468Z,22.00
2018-07-11T21:30:32.380Z,22.00
2018-07-11T21:32:59.129Z,22.00
2018-07-11T21:35:25.943Z,21.90
2018-07-11T21:37:52.670Z,21.90
2018-07-11T21:40:19.422Z,21.90
2018-07-11T21:42:46.206Z,21.90
2018-07-11T21:45:13.137Z,21.80
2018-07-11T21:47:40.061Z,21.80
2018-07-11T21:50:06.804Z,21.80
2018-07-11T21:52:33.636Z,21.80
2018-07-11T21:55:00.389Z,21.70
2018-07-11T21:57:27.159Z,21.70
2018-07-11T21:59:53.890Z,21.70
2018-07-11T22:02:20.773Z,21.60
2018-07-11T22:04:47.783Z,21.60
2018-07-11T22:07:14.518Z,21.60
2018-07-11T22:09:41.234Z,21.60
2018-07-11T22:12:08.005Z,21.60
2018-07-11T22:14:34.742Z,21.50
2018-07-11T22:17:01.452Z,21.50
2018-07-11T22:19:28.892Z,21.50
2018-07-11T22:21:55.615Z,21.50
2018-07-11T22:24:22.305Z,21.40
2018-07-11T22:26:49.004Z,21.40
2018-07-11T22:29:15.853Z,21.40
2018-07-11T22:31:42.542Z,21.40
2018-07-11T22:34:09.469Z,21.40
2018-07-11T22:36:36.261Z,21.30
2018-07-11T22:39:03.114Z,21.30
2018-07-11T22:41:29.820Z,21.30
2018-07-11T22:43:56.563Z,21.20
2018-07-11T22:46:23.371Z,21.20
2018-07-11T22:48:50.165Z,21.20
2018-07-11T22:51:16.901Z,21.20
2018-07-11T22:53:43.619Z,21.20
2018-07-11T22:56:10.344Z,21.10
2018-07-11T22:58:37.197Z,21.10
2018-07-11T23:01:03.928Z,21.10
2018-07-11T23:03:30.676Z,21.10
2018-07-11T23:05:57.372Z,21.10
2018-07-11T23:08:24.136Z,21.00
2018-07-11T23:10:50.930Z,21.00
2018-07-11T23:15:44.993Z,21.00
2018-07-11T23:18:11.988Z,21.00
2018-07-11T23:20:38.711Z,20.90
2018-07-11T23:23:05.358Z,20.90
2018-07-11T23:25:32.057Z,20.90
2018-07-11T23:27:58.748Z,20.90
2018-07-11T23:30:25.487Z,20.90
2018-07-11T23:32:52.261Z,20.90
2018-07-11T23:35:19.115Z,20.80
2018-07-11T23:37:45.869Z,20.80
2018-07-11T23:40:12.645Z,20.80
2018-07-11T23:42:39.375Z,20.80
2018-07-11T23:45:06.185Z,20.80
2018-07-11T23:47:32.957Z,20.80
2018-07-11T23:49:59.721Z,20.80
2018-07-11T23:52:26.432Z,20.70
2018-07-11T23:54:53.178Z,20.70
2018-07-11T23:57:19.929Z,20.70
2018-07-11T23:59:46.661Z,20.70
